sensor_id;sensor_type;location;lat;lon;timestamp;P1;durP1;ratioP1;P2;durP2;ratioP2
46563;SDS011;32291;52.010;4.446;2023-03-19T00:01:01;21.98;;;19.88;;
46563;SDS011;32291;52.010;4.446;2023-03-19T00:02:08;23.58;;;21.38;;
46563;SDS011;32291;52.010;4.446;2023-03-19T00:03:10;22.60;;;20.40;;
46563;SDS011;32291;52.010;4.446;2023-03-19T00:04:11;21.65;;;19.55;;
46563;SDS011;32291;52.010;4.446;2023-03-19T00:05:13;23.83;;;21.73;;
46563;SDS011;32291;52.010;4.446;2023-03-19T00:06:15;23.85;;;21.55;;
46563;SDS011;32291;52.010;4.446;2023-03-19T00:07:17;25.05;;;22.60;;
46563;SDS011;32291;52.010;4.446;2023-03-19T00:08:18;26.17;;;23.58;;
46563;SDS011;32291;52.010;4.446;2023-03-19T00:09:21;24.45;;;22.05;;
46563;SDS011;32291;52.010;4.446;2023-03-19T00:10:23;25.80;;;23.40;;
46563;SDS011;32291;52.010;4.446;2023-03-19T00:11:26;26.08;;;23.65;;
46563;SDS011;32291;52.010;4.446;2023-03-19T00:12:28;24.80;;;22.40;;
46563;SDS011;32291;52.010;4.446;2023-03-19T00:13:30;24.80;;;22.60;;
46563;SDS011;32291;52.010;4.446;2023-03-19T00:14:32;25.50;;;23.00;;
46563;SDS011;32291;52.010;4.446;2023-03-19T00:15:34;24.30;;;22.10;;
46563;SDS011;32291;52.010;4.446;2023-03-19T00:16:36;25.58;;;23.17;;
46563;SDS011;32291;52.010;4.446;2023-03-19T00:17:38;26.00;;;23.40;;
46563;SDS011;32291;52.010;4.446;2023-03-19T00:18:41;24.13;;;22.00;;
46563;SDS011;32291;52.010;4.446;2023-03-19T00:19:43;25.17;;;22.92;;
46563;SDS011;32291;52.010;4.446;2023-03-19T00:20:44;25.02;;;22.52;;
46563;SDS011;32291;52.010;4.446;2023-03-19T00:21:46;23.83;;;21.63;;
46563;SDS011;32291;52.010;4.446;2023-03-19T00:22:49;24.55;;;22.35;;
46563;SDS011;32291;52.010;4.446;2023-03-19T00:23:50;23.35;;;21.02;;
46563;SDS011;32291;52.010;4.446;2023-03-19T00:24:52;25.38;;;22.98;;
46563;SDS011;32291;52.010;4.446;2023-03-19T00:25:54;25.45;;;23.15;;
46563;SDS011;32291;52.010;4.446;2023-03-19T00:26:56;24.42;;;22.10;;
46563;SDS011;32291;52.010;4.446;2023-03-19T00:27:58;25.88;;;23.30;;
46563;SDS011;32291;52.010;4.446;2023-03-19T00:29:00;23.52;;;21.33;;
46563;SDS011;32291;52.010;4.446;2023-03-19T00:30:04;23.65;;;21.27;;
46563;SDS011;32291;52.010;4.446;2023-03-19T00:31:14;23.13;;;21.00;;
46563;SDS011;32291;52.010;4.446;2023-03-19T00:32:17;23.65;;;21.38;;
46563;SDS011;32291;52.010;4.446;2023-03-19T00:33:19;23.77;;;21.45;;
46563;SDS011;32291;52.010;4.446;2023-03-19T00:34:21;22.75;;;20.52;;
46563;SDS011;32291;52.010;4.446;2023-03-19T00:35:23;23.48;;;21.23;;
46563;SDS011;32291;52.010;4.446;2023-03-19T00:36:26;22.63;;;20.25;;
46563;SDS011;32291;52.010;4.446;2023-03-19T00:37:28;22.25;;;20.25;;
46563;SDS011;32291;52.010;4.446;2023-03-19T00:38:33;23.33;;;21.15;;
46563;SDS011;32291;52.010;4.446;2023-03-19T00:39:38;22.95;;;20.65;;
46563;SDS011;32291;52.010;4.446;2023-03-19T00:40:40;21.92;;;19.73;;
46563;SDS011;32291;52.010;4.446;2023-03-19T00:41:42;23.08;;;20.83;;
46563;SDS011;32291;52.010;4.446;2023-03-19T00:42:50;22.73;;;20.52;;
46563;SDS011;32291;52.010;4.446;2023-03-19T00:43:52;23.38;;;21.17;;
46563;SDS011;32291;52.010;4.446;2023-03-19T00:44:57;22.77;;;20.60;;
46563;SDS011;32291;52.010;4.446;2023-03-19T00:45:59;22.00;;;19.80;;
46563;SDS011;32291;52.010;4.446;2023-03-19T00:47:02;23.02;;;20.73;;
46563;SDS011;32291;52.010;4.446;2023-03-19T00:48:04;21.98;;;19.88;;
46563;SDS011;32291;52.010;4.446;2023-03-19T00:49:06;23.13;;;20.85;;
46563;SDS011;32291;52.010;4.446;2023-03-19T00:50:08;24.15;;;21.75;;
46563;SDS011;32291;52.010;4.446;2023-03-19T00:51:11;24.33;;;21.77;;
46563;SDS011;32291;52.010;4.446;2023-03-19T00:52:12;24.15;;;21.75;;
46563;SDS011;32291;52.010;4.446;2023-03-19T00:53:15;23.27;;;20.77;;
46563;SDS011;32291;52.010;4.446;2023-03-19T00:54:17;21.75;;;19.58;;
46563;SDS011;32291;52.010;4.446;2023-03-19T00:55:19;24.50;;;21.98;;
46563;SDS011;32291;52.010;4.446;2023-03-19T00:56:21;24.95;;;22.38;;
46563;SDS011;32291;52.010;4.446;2023-03-19T00:57:22;24.25;;;21.67;;
46563;SDS011;32291;52.010;4.446;2023-03-19T00:58:24;24.10;;;21.50;;
46563;SDS011;32291;52.010;4.446;2023-03-19T00:59:26;23.85;;;21.35;;
46563;SDS011;32291;52.010;4.446;2023-03-19T01:00:28;24.27;;;21.70;;
46563;SDS011;32291;52.010;4.446;2023-03-19T01:01:29;23.83;;;20.73;;
46563;SDS011;32291;52.010;4.446;2023-03-19T01:02:32;25.25;;;22.55;;
46563;SDS011;32291;52.010;4.446;2023-03-19T01:03:34;24.38;;;21.77;;
46563;SDS011;32291;52.010;4.446;2023-03-19T01:04:36;23.98;;;21.50;;
46563;SDS011;32291;52.010;4.446;2023-03-19T01:05:38;23.88;;;21.50;;
46563;SDS011;32291;52.010;4.446;2023-03-19T01:06:40;25.02;;;21.27;;
46563;SDS011;32291;52.010;4.446;2023-03-19T01:07:42;24.30;;;21.67;;
46563;SDS011;32291;52.010;4.446;2023-03-19T01:08:43;25.55;;;22.23;;
46563;SDS011;32291;52.010;4.446;2023-03-19T01:09:45;25.25;;;21.83;;
46563;SDS011;32291;52.010;4.446;2023-03-19T01:10:47;27.30;;;22.42;;
46563;SDS011;32291;52.010;4.446;2023-03-19T01:11:48;24.73;;;21.98;;
46563;SDS011;32291;52.010;4.446;2023-03-19T01:12:51;24.73;;;22.10;;
46563;SDS011;32291;52.010;4.446;2023-03-19T01:13:52;29.35;;;21.83;;
46563;SDS011;32291;52.010;4.446;2023-03-19T01:14:54;26.83;;;21.23;;
46563;SDS011;32291;52.010;4.446;2023-03-19T01:15:56;27.27;;;22.45;;
46563;SDS011;32291;52.010;4.446;2023-03-19T01:16:57;27.27;;;22.02;;
46563;SDS011;32291;52.010;4.446;2023-03-19T01:18:00;28.80;;;21.92;;
46563;SDS011;32291;52.010;4.446;2023-03-19T01:19:02;29.10;;;22.50;;
46563;SDS011;32291;52.010;4.446;2023-03-19T01:20:04;28.65;;;20.98;;
46563;SDS011;32291;52.010;4.446;2023-03-19T01:21:13;28.08;;;22.23;;
46563;SDS011;32291;52.010;4.446;2023-03-19T01:22:15;29.02;;;22.42;;
46563;SDS011;32291;52.010;4.446;2023-03-19T01:23:17;30.58;;;22.77;;
46563;SDS011;32291;52.010;4.446;2023-03-19T01:24:19;27.05;;;21.92;;
46563;SDS011;32291;52.010;4.446;2023-03-19T01:25:21;27.70;;;22.20;;
46563;SDS011;32291;52.010;4.446;2023-03-19T01:26:23;31.38;;;21.75;;
46563;SDS011;32291;52.010;4.446;2023-03-19T01:27:25;32.45;;;22.83;;
46563;SDS011;32291;52.010;4.446;2023-03-19T01:28:27;30.35;;;21.65;;
46563;SDS011;32291;52.010;4.446;2023-03-19T01:29:29;30.45;;;22.90;;
46563;SDS011;32291;52.010;4.446;2023-03-19T01:30:30;30.13;;;22.25;;
46563;SDS011;32291;52.010;4.446;2023-03-19T01:31:32;30.90;;;21.35;;
46563;SDS011;32291;52.010;4.446;2023-03-19T01:32:35;30.33;;;22.00;;
46563;SDS011;32291;52.010;4.446;2023-03-19T01:33:37;31.75;;;21.65;;
46563;SDS011;32291;52.010;4.446;2023-03-19T01:34:39;27.58;;;21.70;;
46563;SDS011;32291;52.010;4.446;2023-03-19T01:35:41;27.77;;;22.10;;
46563;SDS011;32291;52.010;4.446;2023-03-19T01:36:47;31.33;;;23.17;;
46563;SDS011;32291;52.010;4.446;2023-03-19T01:37:49;30.85;;;22.50;;
46563;SDS011;32291;52.010;4.446;2023-03-19T01:38:52;33.42;;;23.50;;
46563;SDS011;32291;52.010;4.446;2023-03-19T01:39:53;28.50;;;22.83;;
46563;SDS011;32291;52.010;4.446;2023-03-19T01:40:55;32.03;;;22.52;;
46563;SDS011;32291;52.010;4.446;2023-03-19T01:41:59;31.75;;;23.63;;
46563;SDS011;32291;52.010;4.446;2023-03-19T01:43:17;29.95;;;23.17;;
46563;SDS011;32291;52.010;4.446;2023-03-19T01:44:25;34.67;;;22.95;;
46563;SDS011;32291;52.010;4.446;2023-03-19T01:45:36;27.27;;;21.35;;
46563;SDS011;32291;52.010;4.446;2023-03-19T01:46:42;31.55;;;23.10;;
46563;SDS011;32291;52.010;4.446;2023-03-19T01:47:43;33.47;;;22.60;;
46563;SDS011;32291;52.010;4.446;2023-03-19T01:48:46;31.13;;;22.67;;
46563;SDS011;32291;52.010;4.446;2023-03-19T01:49:53;31.88;;;21.92;;
46563;SDS011;32291;52.010;4.446;2023-03-19T01:50:58;31.67;;;22.85;;
46563;SDS011;32291;52.010;4.446;2023-03-19T01:52:02;36.45;;;23.05;;
46563;SDS011;32291;52.010;4.446;2023-03-19T01:53:07;35.30;;;22.98;;
46563;SDS011;32291;52.010;4.446;2023-03-19T01:54:16;36.00;;;23.85;;
46563;SDS011;32291;52.010;4.446;2023-03-19T01:55:22;34.53;;;23.75;;
46563;SDS011;32291;52.010;4.446;2023-03-19T01:56:31;32.55;;;22.13;;
46563;SDS011;32291;52.010;4.446;2023-03-19T01:57:36;34.45;;;22.95;;
46563;SDS011;32291;52.010;4.446;2023-03-19T01:58:39;35.67;;;23.90;;
46563;SDS011;32291;52.010;4.446;2023-03-19T01:59:47;35.70;;;23.83;;
46563;SDS011;32291;52.010;4.446;2023-03-19T02:00:54;34.50;;;23.77;;
46563;SDS011;32291;52.010;4.446;2023-03-19T02:02:00;38.03;;;24.80;;
46563;SDS011;32291;52.010;4.446;2023-03-19T02:03:10;35.10;;;22.63;;
46563;SDS011;32291;52.010;4.446;2023-03-19T02:04:13;37.13;;;24.52;;
46563;SDS011;32291;52.010;4.446;2023-03-19T02:05:15;33.80;;;22.95;;
46563;SDS011;32291;52.010;4.446;2023-03-19T02:06:25;40.30;;;24.38;;
46563;SDS011;32291;52.010;4.446;2023-03-19T02:07:31;39.63;;;22.17;;
46563;SDS011;32291;52.010;4.446;2023-03-19T02:08:34;32.15;;;21.90;;
46563;SDS011;32291;52.010;4.446;2023-03-19T02:09:38;39.40;;;24.30;;
46563;SDS011;32291;52.010;4.446;2023-03-19T02:10:41;36.53;;;23.25;;
46563;SDS011;32291;52.010;4.446;2023-03-19T02:11:45;35.58;;;22.80;;
46563;SDS011;32291;52.010;4.446;2023-03-19T02:12:47;36.70;;;22.45;;
46563;SDS011;32291;52.010;4.446;2023-03-19T02:13:49;35.47;;;22.73;;
46563;SDS011;32291;52.010;4.446;2023-03-19T02:14:52;36.70;;;23.98;;
46563;SDS011;32291;52.010;4.446;2023-03-19T02:15:54;30.95;;;21.00;;
46563;SDS011;32291;52.010;4.446;2023-03-19T02:16:57;33.92;;;22.13;;
46563;SDS011;32291;52.010;4.446;2023-03-19T02:17:59;33.15;;;20.60;;
46563;SDS011;32291;52.010;4.446;2023-03-19T02:19:01;32.05;;;21.08;;
46563;SDS011;32291;52.010;4.446;2023-03-19T02:20:12;31.75;;;19.83;;
46563;SDS011;32291;52.010;4.446;2023-03-19T02:21:56;28.52;;;19.27;;
46563;SDS011;32291;52.010;4.446;2023-03-19T02:23:03;27.60;;;20.10;;
46563;SDS011;32291;52.010;4.446;2023-03-19T02:24:26;24.60;;;17.48;;
46563;SDS011;32291;52.010;4.446;2023-03-19T02:25:41;26.23;;;18.55;;
46563;SDS011;32291;52.010;4.446;2023-03-19T02:26:48;25.10;;;17.63;;
46563;SDS011;32291;52.010;4.446;2023-03-19T02:27:51;24.25;;;17.75;;
46563;SDS011;32291;52.010;4.446;2023-03-19T02:28:53;26.80;;;18.33;;
46563;SDS011;32291;52.010;4.446;2023-03-19T02:29:55;23.20;;;18.02;;
46563;SDS011;32291;52.010;4.446;2023-03-19T02:30:57;24.15;;;17.60;;
46563;SDS011;32291;52.010;4.446;2023-03-19T02:31:58;23.67;;;17.23;;
46563;SDS011;32291;52.010;4.446;2023-03-19T02:33:00;25.98;;;16.75;;
46563;SDS011;32291;52.010;4.446;2023-03-19T02:34:03;23.88;;;18.23;;
46563;SDS011;32291;52.010;4.446;2023-03-19T02:35:26;21.45;;;17.08;;
46563;SDS011;32291;52.010;4.446;2023-03-19T02:36:36;24.67;;;17.08;;
46563;SDS011;32291;52.010;4.446;2023-03-19T02:37:44;19.98;;;16.95;;
46563;SDS011;32291;52.010;4.446;2023-03-19T02:38:46;22.30;;;16.50;;
46563;SDS011;32291;52.010;4.446;2023-03-19T02:40:23;24.90;;;18.70;;
46563;SDS011;32291;52.010;4.446;2023-03-19T02:41:22;25.35;;;19.25;;
46563;SDS011;32291;52.010;4.446;2023-03-19T02:42:26;28.98;;;19.60;;
46563;SDS011;32291;52.010;4.446;2023-03-19T02:43:31;25.85;;;20.38;;
46563;SDS011;32291;52.010;4.446;2023-03-19T02:44:35;25.42;;;19.33;;
46563;SDS011;32291;52.010;4.446;2023-03-19T02:45:37;27.73;;;20.30;;
46563;SDS011;32291;52.010;4.446;2023-03-19T02:46:39;26.10;;;19.83;;
46563;SDS011;32291;52.010;4.446;2023-03-19T02:47:41;25.73;;;19.27;;
46563;SDS011;32291;52.010;4.446;2023-03-19T02:48:43;26.58;;;20.42;;
46563;SDS011;32291;52.010;4.446;2023-03-19T02:49:45;24.50;;;17.67;;
46563;SDS011;32291;52.010;4.446;2023-03-19T02:50:47;26.23;;;20.58;;
46563;SDS011;32291;52.010;4.446;2023-03-19T02:51:48;25.75;;;20.13;;
46563;SDS011;32291;52.010;4.446;2023-03-19T02:52:51;24.90;;;20.50;;
46563;SDS011;32291;52.010;4.446;2023-03-19T02:53:53;29.02;;;21.42;;
46563;SDS011;32291;52.010;4.446;2023-03-19T02:54:55;29.58;;;21.27;;
46563;SDS011;32291;52.010;4.446;2023-03-19T02:55:57;27.25;;;19.23;;
46563;SDS011;32291;52.010;4.446;2023-03-19T02:56:59;26.58;;;20.42;;
46563;SDS011;32291;52.010;4.446;2023-03-19T02:58:00;30.13;;;20.67;;
46563;SDS011;32291;52.010;4.446;2023-03-19T02:59:02;25.52;;;21.02;;
46563;SDS011;32291;52.010;4.446;2023-03-19T03:00:04;27.13;;;21.48;;
46563;SDS011;32291;52.010;4.446;2023-03-19T03:01:07;28.73;;;21.23;;
46563;SDS011;32291;52.010;4.446;2023-03-19T03:02:09;28.92;;;21.77;;
46563;SDS011;32291;52.010;4.446;2023-03-19T03:03:11;24.98;;;19.80;;
46563;SDS011;32291;52.010;4.446;2023-03-19T03:04:13;30.23;;;21.63;;
46563;SDS011;32291;52.010;4.446;2023-03-19T03:05:16;28.02;;;21.77;;
46563;SDS011;32291;52.010;4.446;2023-03-19T03:06:18;30.60;;;23.27;;
46563;SDS011;32291;52.010;4.446;2023-03-19T03:07:19;29.33;;;22.98;;
46563;SDS011;32291;52.010;4.446;2023-03-19T03:08:22;28.48;;;22.52;;
46563;SDS011;32291;52.010;4.446;2023-03-19T03:09:24;27.42;;;23.25;;
46563;SDS011;32291;52.010;4.446;2023-03-19T03:10:27;29.15;;;23.45;;
46563;SDS011;32291;52.010;4.446;2023-03-19T03:11:29;32.42;;;26.13;;
46563;SDS011;32291;52.010;4.446;2023-03-19T03:12:31;32.13;;;24.17;;
46563;SDS011;32291;52.010;4.446;2023-03-19T03:13:33;31.20;;;24.05;;
46563;SDS011;32291;52.010;4.446;2023-03-19T03:14:34;31.60;;;23.77;;
46563;SDS011;32291;52.010;4.446;2023-03-19T03:15:36;35.10;;;25.45;;
46563;SDS011;32291;52.010;4.446;2023-03-19T03:16:37;30.33;;;24.52;;
46563;SDS011;32291;52.010;4.446;2023-03-19T03:17:39;32.83;;;24.63;;
46563;SDS011;32291;52.010;4.446;2023-03-19T03:18:43;31.67;;;24.58;;
46563;SDS011;32291;52.010;4.446;2023-03-19T03:19:44;31.08;;;24.60;;
46563;SDS011;32291;52.010;4.446;2023-03-19T03:20:47;32.55;;;24.63;;
46563;SDS011;32291;52.010;4.446;2023-03-19T03:21:49;28.95;;;24.50;;
46563;SDS011;32291;52.010;4.446;2023-03-19T03:22:52;29.85;;;25.58;;
46563;SDS011;32291;52.010;4.446;2023-03-19T03:23:53;34.75;;;25.52;;
46563;SDS011;32291;52.010;4.446;2023-03-19T03:24:56;26.17;;;23.27;;
46563;SDS011;32291;52.010;4.446;2023-03-19T03:25:58;28.70;;;23.52;;
46563;SDS011;32291;52.010;4.446;2023-03-19T03:27:00;33.10;;;27.40;;
46563;SDS011;32291;52.010;4.446;2023-03-19T03:28:02;33.67;;;27.83;;
46563;SDS011;32291;52.010;4.446;2023-03-19T03:29:04;34.05;;;27.88;;
46563;SDS011;32291;52.010;4.446;2023-03-19T03:30:07;35.22;;;28.60;;
46563;SDS011;32291;52.010;4.446;2023-03-19T03:31:10;34.40;;;28.75;;
46563;SDS011;32291;52.010;4.446;2023-03-19T03:32:13;34.67;;;28.05;;
46563;SDS011;32291;52.010;4.446;2023-03-19T03:33:15;36.33;;;29.02;;
46563;SDS011;32291;52.010;4.446;2023-03-19T03:34:17;40.63;;;32.03;;
46563;SDS011;32291;52.010;4.446;2023-03-19T03:35:19;41.10;;;33.53;;
46563;SDS011;32291;52.010;4.446;2023-03-19T03:36:22;41.85;;;33.75;;
46563;SDS011;32291;52.010;4.446;2023-03-19T03:37:24;43.70;;;34.58;;
46563;SDS011;32291;52.010;4.446;2023-03-19T03:38:26;41.42;;;34.53;;
46563;SDS011;32291;52.010;4.446;2023-03-19T03:39:28;39.70;;;34.08;;
46563;SDS011;32291;52.010;4.446;2023-03-19T03:40:31;44.72;;;37.00;;
46563;SDS011;32291;52.010;4.446;2023-03-19T03:41:34;41.08;;;34.75;;
46563;SDS011;32291;52.010;4.446;2023-03-19T03:42:36;45.38;;;36.30;;
46563;SDS011;32291;52.010;4.446;2023-03-19T03:43:38;47.97;;;36.72;;
46563;SDS011;32291;52.010;4.446;2023-03-19T03:44:41;47.00;;;38.17;;
46563;SDS011;32291;52.010;4.446;2023-03-19T03:45:43;48.53;;;37.97;;
46563;SDS011;32291;52.010;4.446;2023-03-19T03:46:44;45.17;;;38.25;;
46563;SDS011;32291;52.010;4.446;2023-03-19T03:47:46;49.28;;;37.88;;
46563;SDS011;32291;52.010;4.446;2023-03-19T03:48:47;46.75;;;38.35;;
46563;SDS011;32291;52.010;4.446;2023-03-19T03:49:51;45.25;;;37.40;;
46563;SDS011;32291;52.010;4.446;2023-03-19T03:50:53;47.42;;;38.20;;
46563;SDS011;32291;52.010;4.446;2023-03-19T03:51:55;47.75;;;38.92;;
46563;SDS011;32291;52.010;4.446;2023-03-19T03:52:57;47.33;;;36.50;;
46563;SDS011;32291;52.010;4.446;2023-03-19T03:53:58;46.55;;;38.10;;
46563;SDS011;32291;52.010;4.446;2023-03-19T03:55:00;51.22;;;38.95;;
46563;SDS011;32291;52.010;4.446;2023-03-19T03:56:03;52.13;;;39.03;;
46563;SDS011;32291;52.010;4.446;2023-03-19T03:57:06;45.58;;;36.97;;
46563;SDS011;32291;52.010;4.446;2023-03-19T03:58:08;45.90;;;36.85;;
46563;SDS011;32291;52.010;4.446;2023-03-19T03:59:10;52.53;;;39.45;;
46563;SDS011;32291;52.010;4.446;2023-03-19T04:00:12;50.13;;;37.50;;
46563;SDS011;32291;52.010;4.446;2023-03-19T04:01:14;49.53;;;38.15;;
46563;SDS011;32291;52.010;4.446;2023-03-19T04:02:17;50.30;;;36.78;;
46563;SDS011;32291;52.010;4.446;2023-03-19T04:03:19;50.58;;;39.00;;
46563;SDS011;32291;52.010;4.446;2023-03-19T04:04:20;50.95;;;38.83;;
46563;SDS011;32291;52.010;4.446;2023-03-19T04:05:22;51.05;;;38.70;;
46563;SDS011;32291;52.010;4.446;2023-03-19T04:06:25;54.83;;;40.35;;
46563;SDS011;32291;52.010;4.446;2023-03-19T04:07:27;50.10;;;38.47;;
46563;SDS011;32291;52.010;4.446;2023-03-19T04:08:30;54.38;;;39.85;;
46563;SDS011;32291;52.010;4.446;2023-03-19T04:09:31;51.10;;;38.83;;
46563;SDS011;32291;52.010;4.446;2023-03-19T04:10:33;54.15;;;39.58;;
46563;SDS011;32291;52.010;4.446;2023-03-19T04:11:38;52.95;;;40.10;;
46563;SDS011;32291;52.010;4.446;2023-03-19T04:12:42;49.63;;;37.75;;
46563;SDS011;32291;52.010;4.446;2023-03-19T04:13:45;55.55;;;40.35;;
46563;SDS011;32291;52.010;4.446;2023-03-19T04:14:47;53.13;;;39.15;;
46563;SDS011;32291;52.010;4.446;2023-03-19T04:15:49;53.97;;;37.88;;
46563;SDS011;32291;52.010;4.446;2023-03-19T04:16:50;56.47;;;40.75;;
46563;SDS011;32291;52.010;4.446;2023-03-19T04:17:53;55.38;;;40.17;;
46563;SDS011;32291;52.010;4.446;2023-03-19T04:18:55;60.65;;;40.42;;
46563;SDS011;32291;52.010;4.446;2023-03-19T04:19:57;55.33;;;38.58;;
46563;SDS011;32291;52.010;4.446;2023-03-19T04:20:59;52.42;;;38.92;;
46563;SDS011;32291;52.010;4.446;2023-03-19T04:22:01;52.42;;;38.65;;
46563;SDS011;32291;52.010;4.446;2023-03-19T04:23:03;52.08;;;37.33;;
46563;SDS011;32291;52.010;4.446;2023-03-19T04:24:05;53.35;;;38.85;;
46563;SDS011;32291;52.010;4.446;2023-03-19T04:25:07;53.75;;;38.35;;
46563;SDS011;32291;52.010;4.446;2023-03-19T04:26:09;49.90;;;38.38;;
46563;SDS011;32291;52.010;4.446;2023-03-19T04:27:11;53.85;;;39.50;;
46563;SDS011;32291;52.010;4.446;2023-03-19T04:28:13;58.80;;;40.80;;
46563;SDS011;32291;52.010;4.446;2023-03-19T04:29:15;56.13;;;38.92;;
46563;SDS011;32291;52.010;4.446;2023-03-19T04:30:18;59.20;;;39.83;;
46563;SDS011;32291;52.010;4.446;2023-03-19T04:31:20;55.58;;;39.75;;
46563;SDS011;32291;52.010;4.446;2023-03-19T04:32:22;54.50;;;39.58;;
46563;SDS011;32291;52.010;4.446;2023-03-19T04:33:24;54.42;;;39.22;;
46563;SDS011;32291;52.010;4.446;2023-03-19T04:34:26;52.15;;;37.17;;
46563;SDS011;32291;52.010;4.446;2023-03-19T04:35:28;49.58;;;34.80;;
46563;SDS011;32291;52.010;4.446;2023-03-19T04:36:32;54.28;;;37.38;;
46563;SDS011;32291;52.010;4.446;2023-03-19T04:37:34;50.80;;;36.33;;
46563;SDS011;32291;52.010;4.446;2023-03-19T04:38:36;51.35;;;35.72;;
46563;SDS011;32291;52.010;4.446;2023-03-19T04:39:38;49.67;;;34.08;;
46563;SDS011;32291;52.010;4.446;2023-03-19T04:40:40;53.83;;;34.85;;
46563;SDS011;32291;52.010;4.446;2023-03-19T04:41:42;57.63;;;36.05;;
46563;SDS011;32291;52.010;4.446;2023-03-19T04:42:44;54.28;;;36.13;;
46563;SDS011;32291;52.010;4.446;2023-03-19T04:43:46;54.13;;;35.75;;
46563;SDS011;32291;52.010;4.446;2023-03-19T04:44:47;61.75;;;36.80;;
46563;SDS011;32291;52.010;4.446;2023-03-19T04:45:50;53.10;;;33.53;;
46563;SDS011;32291;52.010;4.446;2023-03-19T04:46:52;58.25;;;37.05;;
46563;SDS011;32291;52.010;4.446;2023-03-19T04:47:54;57.30;;;36.40;;
46563;SDS011;32291;52.010;4.446;2023-03-19T04:48:56;59.05;;;35.80;;
46563;SDS011;32291;52.010;4.446;2023-03-19T04:49:59;62.22;;;37.58;;
46563;SDS011;32291;52.010;4.446;2023-03-19T04:51:02;67.50;;;37.97;;
46563;SDS011;32291;52.010;4.446;2023-03-19T04:52:04;65.20;;;38.10;;
46563;SDS011;32291;52.010;4.446;2023-03-19T04:53:06;65.43;;;38.83;;
46563;SDS011;32291;52.010;4.446;2023-03-19T04:54:07;65.95;;;39.28;;
46563;SDS011;32291;52.010;4.446;2023-03-19T04:55:09;63.63;;;37.50;;
46563;SDS011;32291;52.010;4.446;2023-03-19T04:56:11;69.28;;;39.92;;
46563;SDS011;32291;52.010;4.446;2023-03-19T04:57:16;71.30;;;39.45;;
46563;SDS011;32291;52.010;4.446;2023-03-19T04:58:18;69.38;;;39.63;;
46563;SDS011;32291;52.010;4.446;2023-03-19T04:59:20;67.35;;;36.97;;
46563;SDS011;32291;52.010;4.446;2023-03-19T05:00:22;68.28;;;38.88;;
46563;SDS011;32291;52.010;4.446;2023-03-19T05:01:24;69.20;;;39.42;;
46563;SDS011;32291;52.010;4.446;2023-03-19T05:02:26;63.72;;;37.35;;
46563;SDS011;32291;52.010;4.446;2023-03-19T05:03:27;64.78;;;36.80;;
46563;SDS011;32291;52.010;4.446;2023-03-19T05:04:29;68.07;;;37.78;;
46563;SDS011;32291;52.010;4.446;2023-03-19T05:05:31;69.57;;;37.42;;
46563;SDS011;32291;52.010;4.446;2023-03-19T05:06:33;66.70;;;37.17;;
46563;SDS011;32291;52.010;4.446;2023-03-19T05:07:36;64.53;;;36.47;;
46563;SDS011;32291;52.010;4.446;2023-03-19T05:08:38;67.38;;;37.33;;
46563;SDS011;32291;52.010;4.446;2023-03-19T05:09:40;68.50;;;36.33;;
46563;SDS011;32291;52.010;4.446;2023-03-19T05:10:43;62.55;;;35.78;;
46563;SDS011;32291;52.010;4.446;2023-03-19T05:11:45;67.22;;;33.92;;
46563;SDS011;32291;52.010;4.446;2023-03-19T05:12:47;63.25;;;36.28;;
46563;SDS011;32291;52.010;4.446;2023-03-19T05:13:49;65.72;;;34.25;;
46563;SDS011;32291;52.010;4.446;2023-03-19T05:14:50;67.68;;;35.40;;
46563;SDS011;32291;52.010;4.446;2023-03-19T05:15:53;72.80;;;36.88;;
46563;SDS011;32291;52.010;4.446;2023-03-19T05:16:55;67.72;;;35.72;;
46563;SDS011;32291;52.010;4.446;2023-03-19T05:17:57;68.55;;;35.90;;
46563;SDS011;32291;52.010;4.446;2023-03-19T05:18:59;65.80;;;33.75;;
46563;SDS011;32291;52.010;4.446;2023-03-19T05:20:02;72.82;;;34.78;;
46563;SDS011;32291;52.010;4.446;2023-03-19T05:21:08;69.32;;;36.47;;
46563;SDS011;32291;52.010;4.446;2023-03-19T05:22:12;74.10;;;36.00;;
46563;SDS011;32291;52.010;4.446;2023-03-19T05:23:14;76.30;;;37.58;;
46563;SDS011;32291;52.010;4.446;2023-03-19T05:24:16;75.70;;;36.83;;
46563;SDS011;32291;52.010;4.446;2023-03-19T05:25:17;83.10;;;37.83;;
46563;SDS011;32291;52.010;4.446;2023-03-19T05:26:19;70.93;;;33.75;;
46563;SDS011;32291;52.010;4.446;2023-03-19T05:27:21;72.47;;;33.67;;
46563;SDS011;32291;52.010;4.446;2023-03-19T05:28:22;74.50;;;36.33;;
46563;SDS011;32291;52.010;4.446;2023-03-19T05:29:24;67.47;;;33.80;;
46563;SDS011;32291;52.010;4.446;2023-03-19T05:30:27;71.93;;;32.13;;
46563;SDS011;32291;52.010;4.446;2023-03-19T05:31:29;67.60;;;33.25;;
46563;SDS011;32291;52.010;4.446;2023-03-19T05:32:31;61.17;;;30.70;;
46563;SDS011;32291;52.010;4.446;2023-03-19T05:33:33;67.85;;;31.10;;
46563;SDS011;32291;52.010;4.446;2023-03-19T05:34:35;65.80;;;32.22;;
46563;SDS011;32291;52.010;4.446;2023-03-19T05:35:37;71.22;;;32.97;;
46563;SDS011;32291;52.010;4.446;2023-03-19T05:36:38;65.45;;;30.63;;
46563;SDS011;32291;52.010;4.446;2023-03-19T05:37:40;69.72;;;30.48;;
46563;SDS011;32291;52.010;4.446;2023-03-19T05:38:42;61.63;;;29.90;;
46563;SDS011;32291;52.010;4.446;2023-03-19T05:39:44;61.22;;;30.45;;
46563;SDS011;32291;52.010;4.446;2023-03-19T05:40:46;60.05;;;29.73;;
46563;SDS011;32291;52.010;4.446;2023-03-19T05:41:48;60.38;;;30.42;;
46563;SDS011;32291;52.010;4.446;2023-03-19T05:42:50;61.13;;;28.13;;
46563;SDS011;32291;52.010;4.446;2023-03-19T05:43:52;59.33;;;28.63;;
46563;SDS011;32291;52.010;4.446;2023-03-19T05:44:54;58.38;;;29.13;;
46563;SDS011;32291;52.010;4.446;2023-03-19T05:45:55;61.25;;;29.35;;
46563;SDS011;32291;52.010;4.446;2023-03-19T05:46:57;66.13;;;31.23;;
46563;SDS011;32291;52.010;4.446;2023-03-19T05:47:59;61.55;;;30.38;;
46563;SDS011;32291;52.010;4.446;2023-03-19T05:49:01;64.70;;;30.35;;
46563;SDS011;32291;52.010;4.446;2023-03-19T05:50:03;57.55;;;27.25;;
46563;SDS011;32291;52.010;4.446;2023-03-19T05:51:07;59.95;;;29.98;;
46563;SDS011;32291;52.010;4.446;2023-03-19T05:52:09;59.38;;;29.25;;
46563;SDS011;32291;52.010;4.446;2023-03-19T05:53:11;62.03;;;29.17;;
46563;SDS011;32291;52.010;4.446;2023-03-19T05:54:13;62.83;;;29.13;;
46563;SDS011;32291;52.010;4.446;2023-03-19T05:55:16;65.53;;;30.42;;
46563;SDS011;32291;52.010;4.446;2023-03-19T05:56:18;65.95;;;29.98;;
46563;SDS011;32291;52.010;4.446;2023-03-19T05:57:20;64.50;;;30.33;;
46563;SDS011;32291;52.010;4.446;2023-03-19T05:58:22;66.80;;;30.20;;
46563;SDS011;32291;52.010;4.446;2023-03-19T05:59:23;68.28;;;30.52;;
46563;SDS011;32291;52.010;4.446;2023-03-19T06:00:25;70.88;;;31.17;;
46563;SDS011;32291;52.010;4.446;2023-03-19T06:01:27;71.80;;;31.38;;
46563;SDS011;32291;52.010;4.446;2023-03-19T06:02:29;69.40;;;31.58;;
46563;SDS011;32291;52.010;4.446;2023-03-19T06:03:31;68.32;;;30.73;;
46563;SDS011;32291;52.010;4.446;2023-03-19T06:04:33;72.10;;;31.92;;
46563;SDS011;32291;52.010;4.446;2023-03-19T06:05:35;80.25;;;34.13;;
46563;SDS011;32291;52.010;4.446;2023-03-19T06:06:37;80.88;;;33.45;;
46563;SDS011;32291;52.010;4.446;2023-03-19T06:07:38;73.10;;;32.83;;
46563;SDS011;32291;52.010;4.446;2023-03-19T06:08:40;79.18;;;32.97;;